Accueil
METAR-TAF:

METAR-TAF

Aéroports :

Base aérienne 701 Salon-de-Provence

Salon-de-Provence, France

latitude: 43-36N, longitude: 005-06E, altitude: 59 m

Observation

Le bulletin a été fait il y a 30 minutes, à 22:30 UTC
Vent 2 kt de direction variable
Température 22°C
Humidité 65%
Pression 1019 hPa
Visibilité 10 km ou plus
pas de nuages en-dessous de 1500 mètres et pas de cumulonimbus.

METAR: LFMY 202230Z AUTO VRB02KT CAVOK 22/15 Q1019

Heure: 01:00 (23:00 UTC)

Prévision

Le bulletin a été fait il y a 7 heures et 52 minutes, à 15:08 UTC
Prévision valable du 20 à 15 UTC au 21 à 15 UTC
Vent 12 kt de sud
Visibilité 10 km ou plus
pas de nuages en-dessous de 1500 mètres et pas de cumulonimbus.
Evoluant progressivement
du 20 à 18 UTC au 20 à 21 UTC
Vent 2 kt de direction variable

TAF: LFMY 201508Z 2015/2115 19012KT CAVOK BECMG 2018/2021 VRB02KT

Observations et prévisions météorologiques de plus de 4000 aéroports (messages METAR et TAF).

Les stations disponibles sont représentées par des disques jaunes et rouges sur la carte.

Passer la souris dessus pour voir le nom de la station.

Cliquer dessus pour voir les observations et prévisions météorologiques.

Pour changer de carte: cliquez sur les boutons verts avec une croix noire pour zoomer, sur le bouton vert avec un tiret pour effectuer un zoom arrière, ou sur les flèches vertes pour les cartes adjacentes.


METAR-TAF: